This is the latest recevied weather packets stored in our database for station/object JH0FOG-13. If no packets are shown the sender has not sent any weather packets the latest 10 day(s).
| Time | Temp. | Humidity | Pressure | Rain* | Wind** | Luminosity | Snow |
|---|---|---|---|---|---|---|---|
| 1777771202 | 26.11° C | 37% | 1007.5 hPa | 0 mm | - | - | - |
| 1777770002 | 24.44° C | 43% | 1007.8 hPa | 0 mm | - | - | - |
| 1777768802 | 22.78° C | 48% | 1008.1 hPa | 0 mm | - | - | - |
| 1777767602 | 21.67° C | 57% | 1008.5 hPa | 0 mm | - | - | - |
| 1777766402 | 20.56° C | 54% | 1009.2 hPa | 0 mm | - | - | - |
| 1777765202 | 18.33° C | 63% | 1010.2 hPa | 0 mm | - | - | - |
| 1777764002 | 14.44° C | 79% | 1010.6 hPa | 0 mm | - | - | - |
| 1777762802 | 14.44° C | 79% | 1011.1 hPa | 0 mm | - | - | - |
| 1777761602 | 13.33° C | 80% | 1011.9 hPa | 0 mm | - | - | - |
| 1777760402 | 12.22° C | 84% | 1012.3 hPa | 0 mm | - | - | - |
| 1777759202 | 11.67° C | 86% | 1012.5 hPa | 0 mm | - | - | - |
| 1777758002 | 11.11° C | 87% | 1012.5 hPa | 0 mm | - | - | - |
| 1777756802 | 10.56° C | 87% | 1012.5 hPa | 0 mm | - | - | - |
| 1777755602 | 10.56° C | 87% | 1012.7 hPa | 0 mm | - | - | - |
| 1777754402 | 10.56° C | 87% | 1012.1 hPa | 0 mm | - | - | - |
| 1777753201 | 10° C | 87% | 1011.7 hPa | 0 mm | - | - | - |
| 1777752001 | 10° C | 87% | 1011.6 hPa | 0 mm | - | - | - |
| 1777750802 | 10.56° C | 86% | 1011.6 hPa | 0 mm | - | - | - |
| 1777749602 | 10.56° C | 85% | 1011.5 hPa | 0 mm | - | - | - |
| 1777748402 | 10.56° C | 84% | 1011.4 hPa | 0 mm | - | - | - |
| 1777747202 | 10.56° C | 84% | 1011.1 hPa | 0 mm | - | - | - |
| 1777746002 | 10.56° C | 84% | 1011.2 hPa | 0 mm | - | - | - |
| 1777744802 | 10.56° C | 84% | 1011.4 hPa | 0 mm | - | - | - |
| 1777743602 | 10° C | 83% | 1011.5 hPa | 0 mm | - | - | - |
| 1777742402 | 9.44° C | 84% | 1011.7 hPa | 0 mm | - | - | - |
* Rain latest hour (hover to see other rain measurements)
** Current wind speed in m/s (hover to see current wind gust speed)